Time;durP1;ratioP1;P1;durP2;ratioP2;P2;SDS_P1;SDS_P2;PMS_P1;PMS_P2;Temp;Humidity;BMP_temperature;BMP_pressure;BME280_temperature;BME280_humidity;BME280_pressure;Samples;Min_cycle;Max_cycle;Signal;HPM_P1;HPM_P2
2022/12/17 13:07:21;;;;;;;63.13;25.35;;;;;;;;;;5071947;28;20514;-62
2022/12/17 13:09:49;;;;;;;64.03;28.00;;;;;;;;;;5056571;28;20554;-63
2022/12/17 13:12:38;;;;;;;55.13;25.02;;;;;;;;;;5040811;28;20512;-62
2022/12/17 13:15:04;;;;;;;72.10;30.55;;;;;;;;;;5069278;28;20044;-63
2022/12/17 13:17:43;;;;;;;67.15;26.98;;;;;;;;;;5056903;28;20132;-62
2022/12/17 13:20:25;;;;;;;66.53;29.83;;;;;;;;;;5057338;28;20534;-62
2022/12/17 13:22:52;;;;;;;68.22;30.77;;;;;;;;;;5071709;28;20040;-63
2022/12/17 13:25:21;;;;;;;71.57;31.73;;;;;;;;;;5074216;28;20547;-62
2022/12/17 13:27:47;;;;;;;66.63;26.75;;;;;;;;;;5073357;28;20469;-63
2022/12/17 13:30:16;;;;;;;73.82;33.47;;;;;;;;;;5055753;28;20124;-62
2022/12/17 13:32:55;;;;;;;75.22;30.75;;;;;;;;;;5074060;28;20131;-62
2022/12/17 13:35:47;;;;;;;76.25;33.13;;;;;;;;;;5074429;28;20459;-62
2022/12/17 13:38:25;;;;;;;76.63;33.03;;;;;;;;;;5020463;28;20382;-63
2022/12/17 13:40:51;;;;;;;80.20;34.95;;;;;;;;;;5072896;28;20060;-63
2022/12/17 13:43:19;;;;;;;82.75;35.85;;;;;;;;;;5055867;28;20098;-62
2022/12/17 13:45:46;;;;;;;83.55;34.67;;;;;;;;;;5056557;28;20091;-62
2022/12/17 13:48:22;;;;;;;80.43;35.75;;;;;;;;;;5074596;28;20059;-62
2022/12/17 13:50:59;;;;;;;93.82;37.22;;;;;;;;;;5070893;28;20059;-62
2022/12/17 13:53:26;;;;;;;87.55;35.65;;;;;;;;;;5074017;28;20432;-62
2022/12/17 13:55:56;;;;;;;64.32;27.73;;;;;;;;;;5074018;28;20045;-62
2022/12/17 13:58:23;;;;;;;79.35;34.53;;;;;;;;;;5062183;28;20040;-62
2022/12/17 14:00:49;;;;;;;74.60;31.27;;;;;;;;;;5073203;28;20040;-62
2022/12/17 14:03:21;;;;;;;91.57;38.17;;;;;;;;;;5071865;28;20045;-63
2022/12/17 14:05:50;;;;;;;78.03;31.35;;;;;;;;;;5071729;28;20053;-64
2022/12/17 14:08:18;;;;;;;83.03;34.88;;;;;;;;;;5071922;28;20051;-63
2022/12/17 14:10:49;;;;;;;87.93;37.42;;;;;;;;;;5071146;28;20044;-63
2022/12/17 14:13:16;;;;;;;91.63;38.00;;;;;;;;;;5071591;28;20053;-63
2022/12/17 14:15:47;;;;;;;88.18;35.85;;;;;;;;;;5068056;28;20055;-64
2022/12/17 14:18:15;;;;;;;92.85;39.03;;;;;;;;;;5071667;28;20125;-63
2022/12/17 14:20:41;;;;;;;86.70;38.40;;;;;;;;;;5072493;28;20056;-63
2022/12/17 14:23:10;;;;;;;89.88;36.50;;;;;;;;;;5073847;28;20087;-63
2022/12/17 14:25:37;;;;;;;98.60;38.75;;;;;;;;;;5056034;28;20154;-63
2022/12/17 14:28:05;;;;;;;94.22;39.55;;;;;;;;;;5052182;28;20135;-63
2022/12/17 14:30:41;;;;;;;99.22;39.78;;;;;;;;;;5067382;28;20079;-63
2022/12/17 14:33:26;;;;;;;85.78;34.53;;;0.50;99.90;;;;;;5065804;28;20048;-63
2022/12/17 14:35:53;;;;;;;65.97;28.35;;;;;;;;;;5070682;28;20131;-63
2022/12/17 14:38:20;;;;;;;89.85;36.50;;;;;;;;;;5072251;28;20055;-63
2022/12/17 14:40:46;;;;;;;96.03;40.30;;;;;;;;;;5071936;28;20040;-63
2022/12/17 14:43:13;;;;;;;90.88;37.85;;;;;;;;;;5054681;28;20400;-63
2022/12/17 14:46:19;;;;;;;89.80;36.33;;;;;;;;;;5071777;28;20109;-64
2022/12/17 14:48:59;;;;;;;94.18;39.47;;;;;;;;;;5067624;28;20119;-63
2022/12/17 14:51:29;;;;;;;75.50;30.85;;;;;;;;;;5052201;28;20052;-63
2022/12/17 14:54:13;;;;;;;91.43;35.90;;;;;;;;;;5051688;28;20097;-63
2022/12/17 14:56:40;;;;;;;84.05;33.35;;;;;;;;;;5052974;28;20048;-63
2022/12/17 14:59:25;;;;;;;91.72;35.50;;;;;;;;;;5071455;28;20378;-63
2022/12/17 15:01:52;;;;;;;99.75;38.85;;;;;;;;;;5071381;28;20049;-63
2022/12/17 15:04:19;;;;;;;98.13;39.50;;;;;;;;;;5071857;28;20393;-63
2022/12/17 15:06:48;;;;;;;81.60;31.67;;;;;;;;;;5069997;28;20047;-63
2022/12/17 15:09:14;;;;;;;86.40;35.35;;;;;;;;;;5071732;28;20044;-63
2022/12/17 15:11:41;;;;;;;85.05;32.58;;;;;;;;;;5072039;28;20079;-64
2022/12/17 15:14:07;;;;;;;92.00;34.92;;;;;;;;;;5071104;28;20047;-63
2022/12/17 15:16:32;;;;;;;72.75;28.63;;;;;;;;;;5053724;28;20124;-63
2022/12/17 15:18:59;;;;;;;93.90;36.35;;;;;;;;;;5066901;28;20115;-63
2022/12/17 15:21:26;;;;;;;86.95;33.13;;;;;;;;;;5072444;28;20049;-63
2022/12/17 15:23:52;;;;;;;99.38;37.50;;;;;;;;;;5072185;28;20125;-63
2022/12/17 15:26:18;;;;;;;89.30;36.92;;;;;;;;;;5071791;28;20101;-64
2022/12/17 15:28:45;;;;;;;98.47;36.97;;;;;;;;;;5068896;28;20055;-64
2022/12/17 15:31:12;;;;;;;95.18;37.42;;;;;;;;;;5068953;28;20098;-63
2022/12/17 15:33:38;;;;;;;96.72;35.38;;;;;;;;;;5071386;28;20052;-63
2022/12/17 15:36:04;;;;;;;95.60;37.45;;;;;;;;;;5071818;28;20074;-63
2022/12/17 15:38:30;;;;;;;93.55;36.47;;;;;;;;;;5054421;28;20052;-63
2022/12/17 15:40:59;;;;;;;93.32;36.05;;;;;;;;;;5069897;28;20425;-63
2022/12/17 15:43:25;;;;;;;95.53;37.90;;;;;;;;;;5071571;28;20041;-63
2022/12/17 15:46:02;;;;;;;98.82;36.75;;;;;;;;;;5130741;22;20057;-63
2022/12/17 15:51:33;;;;;;;82.78;31.85;;;;;;;;;;4971033;28;20531;-63
2022/12/17 15:53:59;;;;;;;73.50;29.55;;;;;;;;;;4971308;28;20495;-63
2022/12/17 15:56:27;;;;;;;91.50;32.03;;;;;;;;;;4954175;28;20105;-64
2022/12/17 15:58:55;;;;;;;85.93;34.17;;;;;;;;;;4946872;29;20102;-63
2022/12/17 16:01:22;;;;;;;94.07;33.83;;;;;;;;;;4954061;28;20055;-63
2022/12/17 16:03:48;;;;;;;94.18;35.63;;;;;;;;;;4979890;28;20451;-63
2022/12/17 16:06:14;;;;;;;93.10;36.55;;;;;;;;;;5057491;22;1089130;-63
2022/12/17 16:08:40;;;;;;;101.05;36.28;;;;;;;;;;5089508;22;20077;-64
2022/12/17 16:11:10;;;;;;;92.80;36.33;;;;;;;;;;5071492;28;20074;-63
2022/12/17 16:13:37;;;;;;;63.05;24.02;;;;;;;;;;5071842;28;20044;-63
2022/12/17 16:16:03;;;;;;;91.70;33.53;;;;;;;;;;5069833;28;20068;-63
2022/12/17 16:18:29;;;;;;;86.57;30.77;;;;;;;;;;5052430;28;20055;-63
2022/12/17 16:21:00;;;;;;;88.75;33.80;;;;;;;;;;5052633;28;20044;-63
2022/12/17 16:23:26;;;;;;;94.97;34.10;;;;;;;;;;5052673;28;20049;-64
2022/12/17 16:25:57;;;;;;;96.90;32.20;;;;;;;;;;5052666;28;20437;-63
2022/12/17 16:28:23;;;;;;;95.13;35.35;;;;;;;;;;5071195;28;20048;-63
2022/12/17 16:31:03;;;;;;;87.10;33.88;;;;;;;;;;5068402;28;20148;-64
2022/12/17 16:33:33;;;;;;;91.65;34.45;;;;;;;;;;5068894;28;20044;-64
2022/12/17 16:35:59;;;;;;;85.95;31.35;;;;;;;;;;5053303;28;21099;-63
2022/12/17 16:38:25;;;;;;;97.63;33.90;;;;;;;;;;5071340;28;20083;-63
2022/12/17 16:40:58;;;;;;;101.45;34.53;;;;;;;;;;5053366;28;20037;-64
2022/12/17 16:43:25;;;;;;;97.03;34.58;;;;;;;;;;5071060;28;20174;-63
2022/12/17 16:45:52;;;;;;;71.43;26.20;;;;;;;;;;5049373;28;20417;-63
2022/12/17 16:48:18;;;;;;;98.43;37.17;;;;;;;;;;5070665;28;20493;-63
2022/12/17 16:50:45;;;;;;;37.05;16.33;;;;;;;;;;5069824;28;20516;-64
2022/12/17 16:53:11;;;;;;;99.70;35.45;;;;;;;;;;5071016;28;20106;-64
2022/12/17 16:55:44;;;;;;;105.72;36.88;;;;;;;;;;5069344;28;20083;-64
2022/12/17 16:58:10;;;;;;;66.55;26.17;;;;;;;;;;5071011;28;20407;-64
2022/12/17 17:00:36;;;;;;;102.80;35.97;;;;;;;;;;5069563;28;20413;-63
2022/12/17 17:03:03;;;;;;;96.63;34.00;;;;;;;;;;5071544;28;20049;-64
2022/12/17 17:05:33;;;;;;;79.97;28.13;;;;;;;;;;5055369;28;20091;-63
2022/12/17 17:07:59;;;;;;;84.32;29.55;;;;;;;;;;5056209;28;20584;-63
2022/12/17 17:10:26;;;;;;;99.57;34.90;;;;;;;;;;5074665;28;20374;-63
2022/12/17 17:12:52;;;;;;;102.10;36.58;;;;;;;;;;5073561;28;20056;-64
2022/12/17 17:15:18;;;;;;;100.68;34.70;;;;;;;;;;5073414;28;20497;-63
2022/12/17 17:17:45;;;;;;;94.25;33.08;;;;;;;;;;5073656;28;20256;-63
2022/12/17 17:20:11;;;;;;;74.75;25.05;;;;;;;;;;5074408;28;20051;-61
2022/12/17 17:22:37;;;;;;;103.78;34.92;;;;;;;;;;5071407;28;20040;-62
2022/12/17 17:25:04;;;;;;;105.82;35.83;;;;;;;;;;5056338;28;20119;-61
2022/12/17 17:27:30;;;;;;;91.85;30.42;;;;;;;;;;5074491;28;20543;-62
2022/12/17 17:29:57;;;;;;;83.68;28.30;;;;;;;;;;5073190;28;20493;-62
2022/12/17 17:32:23;;;;;;;114.45;36.55;;;;;;;;;;5073466;28;20481;-62
2022/12/17 17:34:49;;;;;;;87.80;29.45;;;;;;;;;;5055502;28;20131;-62
2022/12/17 17:37:15;;;;;;;104.32;33.50;;;;;;;;;;5073623;28;20040;-61
2022/12/17 17:39:41;;;;;;;80.25;29.23;;;;;;;;;;5072111;28;20504;-62
2022/12/17 17:42:08;;;;;;;77.47;24.83;;;;;;;;;;5069504;28;20494;-62
2022/12/17 17:44:34;;;;;;;93.97;33.05;;;;;;;;;;5065741;28;20409;-61
2022/12/17 17:47:00;;;;;;;105.35;35.05;;;;;;;;;;5072863;28;20068;-62
2022/12/17 17:49:27;;;;;;;113.50;36.58;;;;;;;;;;5068083;28;20127;-62
2022/12/17 17:51:53;;;;;;;66.93;24.67;;;;;;;;;;5071699;28;20409;-62
2022/12/17 17:54:19;;;;;;;105.90;36.22;;;;;;;;;;5074195;28;20048;-62
2022/12/17 17:56:45;;;;;;;105.47;35.95;;;;;;;;;;5072669;28;20404;-62
2022/12/17 17:59:12;;;;;;;100.70;33.25;;;;;;;;;;5071963;28;20497;-61
2022/12/17 18:01:40;;;;;;;94.53;30.77;;;;;;;;;;5072346;28;20626;-61
2022/12/17 18:04:07;;;;;;;108.97;36.08;;;;;;;;;;5073518;28;20377;-62
2022/12/17 18:06:36;;;;;;;99.82;34.92;;;;;;;;;;5072140;28;20469;-62
2022/12/17 18:09:02;;;;;;;104.32;30.00;;;;;;;;;;5069820;28;20102;-61
2022/12/17 18:11:29;;;;;;;115.28;36.35;;;;;;;;;;5071932;28;20377;-62
2022/12/17 18:13:56;;;;;;;114.07;37.83;;;;;;;;;;5066287;28;20448;-62
2022/12/17 18:16:27;;;;;;;106.65;33.78;;;;;;;;;;5069911;28;20041;-62
2022/12/17 18:18:55;;;;;;;110.25;35.33;;;;;;;;;;5059169;28;20128;-62
2022/12/17 18:21:21;;;;;;;108.38;33.00;;;;;;;;;;5071919;28;20048;-62
2022/12/17 18:23:47;;;;;;;116.43;37.17;;;;;;;;;;5053747;28;20125;-62
2022/12/17 18:26:15;;;;;;;114.85;37.22;;;;;;;;;;5072559;28;20102;-62
2022/12/17 18:28:42;;;;;;;107.80;34.55;;;;;;;;;;5051060;28;20051;-62
2022/12/17 18:31:13;;;;;;;75.38;26.92;;;;;;;;;;5068303;28;20068;-62
2022/12/17 18:33:40;;;;;;;67.95;23.92;;;;;;;;;;5069895;28;20094;-64
2022/12/17 18:36:11;;;;;;;102.45;34.08;;;;;;;;;;5035600;28;20049;-62
2022/12/17 18:38:37;;;;;;;94.00;28.98;;;;;;;;;;5057555;28;20508;-61
2022/12/17 18:43:21;;;;;;;88.68;31.52;;;;;;;;;;5070823;28;20044;-62
2022/12/17 18:43:53;;;;;;;113.73;33.70;;;;;;;;;;5065854;28;20508;-61
2022/12/17 18:46:19;;;;;;;104.55;33.88;;;;;;;;;;5073285;28;20315;-62
2022/12/17 18:48:45;;;;;;;102.35;32.63;;;;;;;;;;5052774;28;20085;-62
2022/12/17 18:51:11;;;;;;;109.03;33.85;;;;;;;;;;5053159;28;20052;-62
2022/12/17 18:53:37;;;;;;;109.32;34.28;;;;;;;;;;5053091;28;20049;-62
2022/12/17 18:56:08;;;;;;;103.85;33.50;;;;;;;;;;5044628;28;20522;-62
2022/12/17 18:58:34;;;;;;;106.07;35.90;;;;;;;;;;5038099;28;20084;-61
2022/12/17 19:01:00;;;;;;;119.55;37.10;;;;;;;;;;5072731;28;20090;-62
2022/12/17 19:03:26;;;;;;;106.30;35.47;;;;;;;;;;5054918;28;20135;-61
2022/12/17 19:05:51;;;;;;;100.03;32.55;;;;;;;;;;5072624;28;20171;-61
2022/12/17 19:08:17;;;;;;;107.22;32.95;;;;;;;;;;5072633;28;20182;-61
2022/12/17 19:10:44;;;;;;;108.55;35.78;;;;;;;;;;5072553;28;20497;-61
2022/12/17 19:13:10;;;;;;;113.55;35.70;;;;;;;;;;5071901;28;20580;-61
2022/12/17 19:15:36;;;;;;;87.68;29.25;;;;;;;;;;5072415;28;20080;-62
2022/12/17 19:18:02;;;;;;;115.70;37.53;;;;;;;;;;5071990;28;20124;-61
2022/12/17 19:20:28;;;;;;;100.90;31.67;;;;;;;;;;5072287;28;20485;-61
2022/12/17 19:22:54;;;;;;;89.13;29.42;;;;;;;;;;5071784;28;20059;-61
2022/12/17 19:25:20;;;;;;;98.25;34.90;;;;;;;;;;5071547;28;20040;-61
2022/12/17 19:27:46;;;;;;;114.90;37.75;;;;;;;;;;5070963;28;20390;-61
2022/12/17 19:30:12;;;;;;;111.70;34.88;;;;;;;;;;5072219;28;20485;-61
2022/12/17 19:32:38;;;;;;;99.03;28.95;;;;;;;;;;5053812;28;20470;-61
2022/12/17 19:38:11;;;;;;;126.35;39.67;;;;;;;;;;4935452;29;20070;-62
2022/12/17 19:40:37;;;;;;;114.72;36.55;;;;;;;;;;4955783;28;20047;-61
2022/12/17 19:43:03;;;;;;;108.82;37.25;;;;;;;;;;4954062;28;20492;-61
2022/12/17 19:45:30;;;;;;;108.35;34.70;;;;;;;;;;4938162;29;20074;-61
2022/12/17 19:47:56;;;;;;;77.43;25.83;;;;;;;;;;4953345;28;20405;-61
2022/12/17 19:50:22;;;;;;;82.40;27.45;;;;;;;;;;4964397;28;20491;-62
2022/12/17 19:52:48;;;;;;;85.63;26.20;;;;;;;;;;4972777;28;20517;-61
2022/12/17 19:55:16;;;;;;;108.60;37.42;;;;;;;;;;4968903;28;20043;-61
2022/12/17 19:57:42;;;;;;;94.43;30.73;;;;;;;;;;4935497;29;20507;-61
2022/12/17 20:00:09;;;;;;;103.22;33.38;;;;;;;;;;4959409;28;20038;-62
2022/12/17 20:02:35;;;;;;;105.35;35.60;;;;;;;;;;4969357;28;20086;-62
2022/12/17 20:05:01;;;;;;;115.13;36.15;;;;;;;;;;4953884;29;20125;-62
2022/12/17 20:07:27;;;;;;;100.72;36.95;;;;;;;;;;4959539;28;20135;-62
2022/12/17 20:09:53;;;;;;;95.18;35.47;;;;;;;;;;4971820;28;20090;-62
2022/12/17 20:12:19;;;;;;;108.97;36.90;;;;;;;;;;4968374;28;20090;-62
2022/12/17 20:14:45;;;;;;;91.78;29.27;;;;;;;;;;4971156;28;20053;-62
2022/12/17 20:17:11;;;;;;;93.82;31.00;;;;;;;;;;4955644;28;20050;-62
2022/12/17 20:19:37;;;;;;;101.97;36.50;;;;;;;;;;4971666;28;20407;-62
2022/12/17 20:22:04;;;;;;;75.97;26.20;;;;;;;;;;4972513;28;20061;-62
2022/12/17 20:24:30;;;;;;;95.13;33.75;;;;;;;;;;4973031;28;20050;-62
2022/12/17 20:26:56;;;;;;;96.78;34.20;;;;;;;;;;4960941;28;20077;-61
2022/12/17 20:29:24;;;;;;;99.78;34.80;;;;;;;;;;4957033;28;20485;-62
2022/12/17 20:31:50;;;;;;;67.50;24.55;;;;;;;;;;4948652;28;20057;-61
2022/12/17 20:34:17;;;;;;;106.03;34.00;;;;;;;;;;4958783;28;20075;-61
2022/12/17 20:36:44;;;;;;;89.53;30.65;;;;;;;;;;4963758;28;20078;-61
2022/12/17 20:39:10;;;;;;;88.63;33.55;;;;;;;;;;4958977;28;20492;-61
2022/12/17 20:41:38;;;;;;;85.22;26.98;;;;;;;;;;4994178;28;20057;-61
2022/12/17 20:44:06;;;;;;;111.03;40.20;;;;;;;;;;4982806;28;20127;-61
2022/12/17 20:46:35;;;;;;;70.70;26.63;;;;;;;;;;4978834;28;20053;-61
2022/12/17 20:49:03;;;;;;;99.13;33.63;;;;;;;;;;4995946;28;20054;-61
2022/12/17 20:51:29;;;;;;;106.90;32.38;;;;;;;;;;4978745;28;20050;-61
2022/12/17 20:53:56;;;;;;;79.93;28.95;;;;;;;;;;4995772;28;20065;-61
2022/12/17 20:56:24;;;;;;;99.03;33.28;;;;;;;;;;4987858;28;20065;-61
2022/12/17 20:58:54;;;;;;;62.78;23.13;;;;;;;;;;4959282;28;20055;-61
2022/12/17 21:01:21;;;;;;;83.05;27.98;;;;;;;;;;4960581;28;20130;-61
2022/12/17 21:03:48;;;;;;;89.72;29.88;;;;;;;;;;4988417;28;20053;-61
2022/12/17 21:06:15;;;;;;;99.97;35.65;;;;;;;;;;4979825;28;20053;-62
2022/12/17 21:08:44;;;;;;;76.97;29.75;;;;;;;;;;4983262;28;20058;-61
2022/12/17 21:11:10;;;;;;;118.25;36.60;;;;;;;;;;4983912;28;20042;-61
2022/12/17 21:13:36;;;;;;;84.78;28.15;;;;;;;;;;4993843;28;20082;-61
2022/12/17 21:16:13;;;;;;;100.68;34.78;;;;;;;;;;4977384;28;20053;-61
2022/12/17 21:18:39;;;;;;;84.28;31.02;;;;;;;;;;4962756;28;20052;-64
2022/12/17 21:21:07;;;;;;;97.82;35.15;;;;;;;;;;4995443;28;20070;-62
2022/12/17 21:23:34;;;;;;;91.43;31.15;;;;;;;;;;4995180;28;20050;-62
2022/12/17 21:26:02;;;;;;;97.43;33.15;;;;;;;;;;4967440;28;20042;-60
2022/12/17 21:28:28;;;;;;;97.95;35.33;;;;;;;;;;4973962;28;20121;-61
2022/12/17 21:30:54;;;;;;;90.18;30.02;;;;;;;;;;4988558;28;20053;-61
2022/12/17 21:33:21;;;;;;;64.38;21.52;;;;;;;;;;4994803;28;20403;-62
2022/12/17 21:35:47;;;;;;;89.75;30.67;;;;;;;;;;4989042;28;20396;-61
2022/12/17 21:38:13;;;;;;;77.55;29.55;;;;;;;;;;4981300;28;20054;-60
2022/12/17 21:40:39;;;;;;;74.50;23.65;;;;;;;;;;4994723;28;20054;-62
2022/12/17 21:43:05;;;;;;;103.10;35.83;;;;;;;;;;4967349;28;20055;-61
2022/12/17 21:45:37;;;;;;;103.75;35.80;;;;;;;;;;4980458;28;20136;-60
2022/12/17 21:48:04;;;;;;;97.07;33.85;;;;;;;;;;4981024;28;20133;-61
2022/12/17 21:50:31;;;;;;;83.72;30.63;;;;;;;;;;4972503;28;20050;-61
2022/12/17 21:52:57;;;;;;;100.32;34.90;;;;;;;;;;4932367;28;20105;-62
2022/12/17 21:55:23;;;;;;;78.32;26.55;;;;;;;;;;4973862;28;20046;-61
2022/12/17 21:57:49;;;;;;;115.32;36.03;;;;;;;;;;4957539;28;20050;-61
2022/12/17 22:00:16;;;;;;;98.32;34.38;;;;;;;;;;4956879;28;20443;-61
2022/12/17 22:02:42;;;;;;;94.90;30.60;;;;;;;;;;4976065;28;20053;-61
2022/12/17 22:05:08;;;;;;;72.95;21.70;;;;;;;;;;4957514;28;20050;-61
2022/12/17 22:07:34;;;;;;;92.45;34.85;;;;;;;;;;4975147;28;20051;-60
2022/12/17 22:10:00;;;;;;;105.47;35.03;;;;;;;;;;4974025;28;20093;-60
2022/12/17 22:15:11;;;;;;;110.47;37.78;;;;;;;;;;4972620;28;20043;-60
2022/12/17 22:17:37;;;;;;;77.18;28.70;;;;;;;;;;4975725;28;20126;-61
2022/12/17 22:20:06;;;;;;;110.88;36.70;;;;;;;;;;4974078;28;20403;-60
2022/12/17 22:22:32;;;;;;;102.63;35.10;;;;;;;;;;4974582;28;20043;-61
2022/12/17 22:24:58;;;;;;;87.53;29.58;;;;;;;;;;4972535;28;20094;-60
2022/12/17 22:27:24;;;;;;;95.70;30.30;;;;;;;;;;4974521;28;20059;-60
2022/12/17 22:35:20;;;;;;;93.30;33.90;;;;;;;;;;4972693;28;20046;-61
2022/12/17 22:37:46;;;;;;;86.50;31.00;;;;;;;;;;4973109;28;20061;-61
2022/12/17 22:40:12;;;;;;;97.38;33.58;;;;;;;;;;4956657;28;20042;-61
2022/12/17 22:45:25;;;;;;;100.78;29.90;;;;;;;;;;4973785;28;20047;-60
2022/12/17 22:47:51;;;;;;;68.72;24.48;;;;;;;;;;4973147;28;20125;-61
2022/12/17 22:50:17;;;;;;;85.25;31.55;;;;;;;;;;4972289;28;20121;-63
2022/12/17 22:52:44;;;;;;;85.18;31.20;;;;;;;;;;4947527;28;20109;-64
2022/12/17 22:55:10;;;;;;;99.90;35.42;;;;;;;;;;4952239;28;20078;-64
2022/12/17 22:57:36;;;;;;;92.97;30.55;;;;;;;;;;4973968;28;20058;-64
2022/12/17 23:00:02;;;;;;;57.75;25.23;;;;;;;;;;4973076;28;20055;-66
2022/12/17 23:02:28;;;;;;;76.35;28.67;;;;;;;;;;4956023;28;20047;-64
2022/12/17 23:04:54;;;;;;;94.35;33.22;;;;;;;;;;4973059;28;20043;-65
2022/12/17 23:07:20;;;;;;;82.00;27.15;;;;;;;;;;4972787;28;20050;-64
2022/12/17 23:10:07;;;;;;;77.13;25.25;;;;;;;;;;5081857;22;20049;-65
2022/12/17 23:12:52;;;;;;;93.10;32.65;;;;;;;;;;5051093;28;20049;-64
2022/12/17 23:15:20;;;;;;;87.78;30.88;;;;;;;;;;5061379;28;20475;-65
2022/12/17 23:17:47;;;;;;;82.88;27.45;;;;;;;;;;5041764;28;20045;-64
2022/12/17 23:20:13;;;;;;;95.13;30.85;;;;;;;;;;5033341;28;20124;-64
2022/12/17 23:22:40;;;;;;;97.55;32.10;;;;;;;;;;5033419;28;20041;-65
2022/12/17 23:25:06;;;;;;;85.78;28.50;;;;;;;;;;5035987;28;20436;-65
2022/12/17 23:27:32;;;;;;;94.35;33.13;;;;;;;;;;5049577;28;20072;-65
2022/12/17 23:29:58;;;;;;;83.70;25.33;;;;;;;;;;5049222;28;20432;-65
2022/12/17 23:32:24;;;;;;;90.50;27.48;;;;;;;;;;5062515;28;20036;-64
2022/12/17 23:34:50;;;;;;;95.50;30.27;;;;;;;;;;5051201;28;20051;-65
2022/12/17 23:37:17;;;;;;;71.53;22.75;;;;;;;;;;5052163;28;20472;-64
2022/12/17 23:39:43;;;;;;;82.25;26.00;;;;;;;;;;5048510;28;20071;-64
2022/12/17 23:42:09;;;;;;;61.47;21.48;;;;;;;;;;5051610;28;20098;-64
2022/12/17 23:44:35;;;;;;;99.25;32.28;;;;;;;;;;5034118;28;20056;-64
2022/12/17 23:47:01;;;;;;;103.40;33.88;;;;;;;;;;5051426;28;20044;-64
2022/12/17 23:49:27;;;;;;;82.25;29.17;;;;;;;;;;5049501;28;20048;-64
2022/12/17 23:51:53;;;;;;;89.82;26.98;;;;;;;;;;5051187;28;20040;-64
2022/12/17 23:54:19;;;;;;;110.82;35.33;;;;;;;;;;5034024;28;20045;-64
2022/12/17 23:56:45;;;;;;;88.90;29.70;;;;;;;;;;5051620;28;20424;-65
2022/12/17 23:59:11;;;;;;;87.07;29.73;;;;;;;;;;5043549;28;20041;-65
